Strona główna
METAR-TAF:

METAR-TAF

Lotnisko :

Port lotniczy Szanghaj-Pudong

Szanghaj-Pudong, Chiny

Szerokość geograficzna: 31-07N, Długość geograficzna: 121-46E, wysokość: 4 m

Aktualna obserwacja pogody

Raport powstał 23 minut temu, godzina 18:00 UTC
Wiatr 4 kt od północ
Temperatura 3°C
Wilgotność 87%
Ciśnienie 1025 hPa
Widzialność: 5000 m
zamglenie

METAR: ZSPD 231800Z 35002MPS 5000 BR NSC 03/01 Q1025 NOSIG

czas: 02:23 (18:23 UTC)

Prognoza

Raport powstał 2 godziny i 53 minut temu, godzina 15:30 UTC
Prognoza ważna od 23 godzina 18 UTC do 24 godzina 18 UTC
Wiatr 8 kt od wschodnio-północny wschód
Widzialność: 3500 m
Rozproszone chmury na wysokości 2000 ft
zmętnienie
Stopniowe zmiany
od 24 godzina 03 UTC do 24 godzina 05 UTC
Wiatr 8 kt od wschód

TAF: ZSPD 231530Z 2318/2418 06004MPS 3500 HZ SCT020 TX13/2406Z TN02/2321Z BECMG 2403/2405 10004MPS

Obserwacja i prognoza pogody dla ponad 4000 lotnisk (raport METAR i TAF).

Dostępne stacje oznaczono żółtymi i czerwonymi punktami na mapie.

Najedź kursorem aby zobaczyć nazwę stacji.

Kliknij aby zobaczyć obserwacje i prognozy pogody.

Aby zmienić mapę: kliknij na zielony przycisk z czarnym krzyżykiem, aby powiększyć; na zielony przycisk z myślnikiem, aby pomniejszyć; na zielone strzałki, aby przejść do map sąsiednich.


METAR-TAF: